Time;durP1;ratioP1;P1;durP2;ratioP2;P2;SDS_P1;SDS_P2;PMS_P1;PMS_P2;Temp;Humidity;BMP_temperature;BMP_pressure;BME280_temperature;BME280_humidity;BME280_pressure;Samples;Min_cycle;Max_cycle;Signal;HPM_P1;HPM_P2
2022/01/16 00:00:23;;;;;;;4.00;2.70;;;;;;;;;;4529131;28;20033;-58
2022/01/16 00:05:03;;;;;;;13.43;9.18;;;;;;;;;;4530046;28;20045;-58
2022/01/16 00:07:14;;;;;;;8.23;5.55;;;;;;;;;;4531457;28;20623;-58
2022/01/16 00:09:24;;;;;;;8.00;5.10;;;;;;;;;;4530245;28;20117;-58
2022/01/16 00:11:35;;;;;;;6.63;4.30;;;;;;;;;;4530341;28;20033;-58
2022/01/16 00:13:45;;;;;;;4.32;3.08;;;;;;;;;;4527378;28;20037;-58
2022/01/16 00:15:56;;;;;;;3.80;2.80;;;;;;;;;;4530465;28;20112;-58
2022/01/16 00:18:10;;;;;;;3.40;2.90;;;;;;;;;;4528999;28;21524;-58
2022/01/16 00:20:23;;;;;;;3.85;3.03;;;;;;;;;;4528480;28;20053;-58
2022/01/16 00:22:38;;;;;;;5.97;4.32;;;;;;;;;;4528817;28;20067;-58
2022/01/16 00:24:48;;;;;;;6.20;4.40;;;;;;;;;;4529530;28;20478;-58
2022/01/16 00:26:58;;;;;;;7.63;5.40;;;;;;;;;;4528681;28;20425;-58
2022/01/16 00:29:09;;;;;;;5.30;4.17;;;;;;;;;;4527902;28;33416;-58
2022/01/16 00:31:21;;;;;;;4.70;3.90;;;;;;;;;;4526864;28;20509;-58
2022/01/16 00:33:32;;;;;;;5.03;3.50;;;;;;;;;;4529142;28;20595;-58
2022/01/16 00:35:43;;;;;;;5.05;4.00;;;;;;;;;;4529002;28;20033;-58
2022/01/16 00:37:54;;;;;;;4.63;3.70;;;;;;;;;;4525587;28;20025;-58
2022/01/16 00:40:05;;;;;;;5.10;3.70;;;;;;;;;;4537380;28;25301;-58
2022/01/16 00:42:16;;;;;;;5.03;4.13;;;;;;;;;;4533559;28;20038;-58
2022/01/16 00:44:26;;;;;;;6.13;4.23;;;;;;;;;;4529863;28;20041;-59
2022/01/16 00:46:36;;;;;;;5.70;4.07;;;;;;;;;;4527599;28;31588;-58
2022/01/16 00:48:47;;;;;;;5.17;3.47;;;;;;;;;;4528141;28;20029;-58
2022/01/16 00:50:58;;;;;;;4.80;3.37;;;;;;;;;;4526869;28;20052;-59
2022/01/16 00:53:08;;;;;;;3.63;3.00;;;;;;;;;;4528927;28;20037;-58
2022/01/16 00:55:19;;;;;;;3.50;2.83;;;;;;;;;;4529833;28;20037;-58
2022/01/16 00:57:30;;;;;;;3.80;3.00;;;;;;;;;;4514343;28;20132;-58
2022/01/16 00:59:40;;;;;;;4.10;2.97;;;;;;;;;;4530651;28;20025;-58
2022/01/16 01:01:51;;;;;;;3.87;2.93;;;;;;;;;;4526557;28;20063;-58
2022/01/16 01:04:02;;;;;;;3.63;2.83;;;;;;;;;;4528354;28;20030;-58
2022/01/16 01:06:12;;;;;;;2.70;2.50;;;;;;;;;;4526003;28;20537;-58
2022/01/16 01:08:26;;;;;;;4.27;2.80;;;;;;;;;;4527400;28;20038;-58
2022/01/16 01:10:39;;;;;;;4.30;2.95;;;;;;;;;;4521008;28;20184;-58
2022/01/16 01:12:55;;;;;;;4.15;3.17;;;;;;;;;;4528162;28;20189;-59
2022/01/16 01:17:23;;;;;;;7.68;4.20;;;;;;;;;;4528900;28;20041;-58
2022/01/16 01:19:35;;;;;;;8.32;4.30;;;;;;;;;;4528454;28;20041;-59
2022/01/16 01:21:46;;;;;;;7.90;5.03;;;;;;;;;;4530193;28;20041;-59
2022/01/16 01:23:58;;;;;;;6.20;3.20;;;;;;;;;;4530171;28;20564;-59
2022/01/16 01:26:08;;;;;;;3.35;2.55;;;;;;;;;;4529198;28;20137;-59
2022/01/16 01:28:19;;;;;;;2.47;2.00;;;;;;;;;;4528012;28;20025;-58
2022/01/16 01:30:29;;;;;;;3.33;2.20;;;;;;;;;;4528261;28;20180;-59
2022/01/16 01:32:40;;;;;;;2.53;2.10;;;;;;;;;;4529025;28;20033;-59
2022/01/16 01:34:51;;;;;;;3.72;2.35;;;;;;;;;;4527545;28;20037;-58
2022/01/16 01:37:01;;;;;;;4.27;2.73;;;;;;;;;;4527206;28;20032;-59
2022/01/16 01:39:12;;;;;;;3.97;2.87;;;;;;;;;;4527341;28;20038;-58
2022/01/16 01:41:25;;;;;;;4.33;2.90;;;;;;;;;;4528148;28;20136;-59
2022/01/16 01:51:04;;;;;;;3.60;2.50;;;;;;;;;;4527776;28;20120;-58
2022/01/16 01:53:17;;;;;;;3.00;2.45;;;;;;;;;;4530358;28;20580;-59
2022/01/16 01:55:27;;;;;;;2.58;2.20;;;;;;;;;;4525601;28;20041;-59
2022/01/16 01:57:37;;;;;;;2.73;2.20;;;;;;;;;;4527968;28;20076;-58
2022/01/16 01:59:48;;;;;;;2.80;2.33;;;;;;;;;;4528559;28;20120;-59
2022/01/16 02:01:58;;;;;;;2.70;2.40;;;;;;;;;;4527349;28;32754;-58
2022/01/16 02:04:09;;;;;;;3.20;2.43;;;;;;;;;;4526712;28;20040;-59
2022/01/16 02:06:21;;;;;;;2.60;2.40;;;;;;;;;;4528902;28;20615;-58
2022/01/16 02:08:35;;;;;;;3.30;2.28;;;;;;;;;;4527939;28;20092;-58
2022/01/16 02:10:45;;;;;;;2.88;2.30;;;;;;;;;;4525739;28;20167;-59
2022/01/16 02:13:00;;;;;;;3.20;2.67;;;;;;;;;;4527651;28;20106;-59
2022/01/16 02:32:48;;;;;;;3.10;2.65;;;;;;;;;;4527650;28;20027;-59
2022/01/16 02:34:59;;;;;;;2.67;2.47;;;;;;;;;;4528910;28;20615;-58
2022/01/16 02:37:13;;;;;;;2.60;2.30;;;;;;;;;;4526866;28;20037;-58
2022/01/16 02:39:30;;;;;;;2.22;2.03;;;;;;;;;;4527533;28;20109;-59
2022/01/16 02:41:41;;;;;;;2.35;2.15;;;;;;;;;;4529480;28;20123;-58
2022/01/16 02:43:54;;;;;;;2.63;2.22;;;;;;;;;;4510454;28;20121;-59
2022/01/16 02:48:24;;;;;;;4.15;2.80;;;;;;;;;;4528583;28;20147;-59
2022/01/16 02:50:36;;;;;;;3.97;2.60;;;;;;;;;;4527111;28;20088;-58
2022/01/16 02:52:46;;;;;;;;;;;;;;;;;;4528142;28;20033;-58
2022/01/16 02:55:00;;;;;;;2.15;1.95;;;;;;;;;;4526621;28;19917;-58
2022/01/16 02:57:14;;;;;;;2.28;1.90;;;;;;;;;;4527151;28;20671;-58
2022/01/16 02:59:24;;;;;;;1.80;1.70;;;;;;;;;;4528208;28;20138;-59
2022/01/16 03:01:34;;;;;;;2.63;2.30;;;;;;;;;;4528358;28;20111;-59
2022/01/16 03:03:45;;;;;;;2.13;1.93;;;;;;;;;;4528608;28;20025;-59
2022/01/16 03:05:56;;;;;;;2.47;2.13;;;;;;;;;;4529070;28;20500;-59
2022/01/16 03:08:06;;;;;;;3.23;2.10;;;;;;;;;;4525657;28;20033;-59
2022/01/16 03:12:47;;;;;;;2.13;1.90;;;;;;;;;;4526476;28;20033;-59
2022/01/16 03:14:58;;;;;;;3.78;2.70;;;;;;;;;;4526330;28;20623;-58
2022/01/16 03:17:10;;;;;;;3.90;2.77;;;;;;;;;;4527612;28;20083;-59
2022/01/16 03:21:55;;;;;;;2.92;2.60;;;;;;;;;;4527673;28;20050;-58
2022/01/16 03:24:06;;;;;;;2.95;2.47;;;;;;;;;;4526930;28;20034;-58
2022/01/16 03:26:16;;;;;;;3.20;2.60;;;;;;;;;;4528309;28;20030;-59
2022/01/16 03:28:27;;;;;;;2.67;2.30;;;;;;;;;;4526754;28;21729;-59
2022/01/16 03:30:37;;;;;;;3.27;2.50;;;;;;;;;;4526442;28;20033;-59
2022/01/16 03:32:48;;;;;;;2.33;2.13;;;;;;;;;;4527760;28;20040;-59
2022/01/16 03:34:58;;;;;;;3.10;2.60;;;;;;;;;;4526391;28;20041;-59
2022/01/16 03:37:09;;;;;;;3.23;2.77;;;;;;;;;;4524791;28;20048;-58
2022/01/16 03:39:20;;;;;;;3.23;2.37;;;;;;;;;;4525688;28;20049;-58
2022/01/16 03:41:33;;;;;;;3.58;2.72;;;;;;;;;;4527337;28;20045;-58
2022/01/16 03:43:43;;;;;;;3.90;2.90;;;;;;;;;;4526878;28;20034;-59
2022/01/16 03:45:53;;;;;;;3.60;2.50;;;;;;;;;;4525119;28;35634;-58
2022/01/16 03:48:04;;;;;;;3.63;2.50;;;;;;;;;;4526702;28;20046;-60
2022/01/16 03:50:14;;;;;;;4.60;3.27;;;;;;;;;;4526624;28;20033;-59
2022/01/16 03:52:25;;;;;;;3.47;2.43;;;;;;;;;;4526253;28;26201;-58
2022/01/16 03:54:36;;;;;;;4.22;2.75;;;;;;;;;;4533026;28;20037;-60
2022/01/16 03:56:47;;;;;;;4.47;3.00;;;;;;;;;;4525168;28;20060;-58
2022/01/16 03:58:58;;;;;;;4.03;3.03;;;;;;;;;;4527732;28;20037;-58
2022/01/16 04:01:08;;;;;;;5.15;3.50;;;;;;;;;;4524905;28;20096;-59
2022/01/16 04:03:18;;;;;;;5.30;3.53;;;;;;;;;;4524533;28;28480;-58
2022/01/16 04:05:29;;;;;;;5.90;4.07;;;;;;;;;;4527346;28;20897;-58
2022/01/16 04:07:39;;;;;;;5.87;3.97;;;;;;;;;;4525316;28;20039;-58
2022/01/16 04:09:49;;;;;;;7.03;4.77;;;;;;;;;;4527237;28;20029;-58
2022/01/16 04:12:01;;;;;;;6.80;4.70;;;;;;;;;;4526818;28;20025;-58
2022/01/16 04:14:16;;;;;;;7.90;5.13;;;;;;;;;;4527326;28;20133;-58
2022/01/16 04:16:26;;;;;;;6.22;4.70;;;;;;;;;;4525812;28;20021;-58
2022/01/16 04:18:37;;;;;;;6.60;4.73;;;;;;;;;;4529235;28;33028;-58
2022/01/16 04:20:47;;;;;;;6.80;5.10;;;;;;;;;;4530260;28;20048;-59
2022/01/16 04:22:58;;;;;;;6.70;4.73;;;;;;;;;;4528308;28;20041;-59
2022/01/16 04:25:08;;;;;;;7.37;5.23;;;;;;;;;;4529193;28;20034;-58
2022/01/16 04:27:19;;;;;;;7.00;5.23;;;;;;;;;;4527549;28;20027;-58
2022/01/16 04:29:29;;;;;;;7.97;5.23;;;;;;;;;;4528797;28;39049;-59
2022/01/16 04:31:40;;;;;;;7.37;5.13;;;;;;;;;;4528781;28;20033;-58
2022/01/16 04:33:50;;;;;;;6.97;5.20;;;;;;;;;;4528639;28;32144;-59
2022/01/16 04:36:00;;;;;;;7.57;5.40;;;;;;;;;;4529293;28;20423;-58
2022/01/16 04:38:11;;;;;;;7.07;4.93;;;;;;;;;;4530428;28;20037;-58
2022/01/16 04:40:23;;;;;;;6.80;4.60;;;;;;;;;;4529413;28;20030;-58
2022/01/16 04:45:04;;;;;;;6.55;4.90;;;;;;;;;;4527440;28;20060;-58
2022/01/16 04:47:14;;;;;;;6.13;4.78;;;;;;;;;;4515505;28;20041;-58
2022/01/16 04:49:25;;;;;;;6.23;4.50;;;;;;;;;;4531894;28;20398;-58
2022/01/16 04:51:35;;;;;;;5.77;4.30;;;;;;;;;;4528759;28;20038;-58
2022/01/16 04:53:46;;;;;;;6.37;4.37;;;;;;;;;;4528362;28;20129;-58
2022/01/16 04:55:56;;;;;;;5.27;4.20;;;;;;;;;;4528191;28;20031;-58
2022/01/16 04:58:07;;;;;;;5.30;4.17;;;;;;;;;;4529400;28;20037;-58
2022/01/16 05:00:17;;;;;;;7.03;4.53;;;;;;;;;;4527720;28;26205;-58
2022/01/16 05:02:28;;;;;;;6.07;4.60;;;;;;;;;;4525401;28;20545;-59
2022/01/16 05:04:38;;;;;;;5.73;4.40;;;;;;;;;;4529563;28;20068;-58
2022/01/16 05:06:49;;;;;;;5.73;4.00;;;;;;;;;;4528944;28;20116;-59
2022/01/16 05:08:59;;;;;;;6.77;4.60;;;;;;;;;;4529057;28;20630;-59
2022/01/16 05:11:11;;;;;;;6.50;4.73;;;;;;;;;;4529294;28;20044;-59
2022/01/16 05:18:02;;;;;;;5.28;4.15;;;;;;;;;;4528480;28;20072;-59
2022/01/16 05:20:13;;;;;;;5.97;4.80;;;;;;;;;;4528146;28;20120;-58
2022/01/16 05:22:23;;;;;;;5.80;4.37;;;;;;;;;;4528579;28;20040;-59
2022/01/16 05:24:35;;;;;;;6.50;4.53;;;;;;;;;;4529257;28;20092;-59
2022/01/16 05:26:45;;;;;;;5.30;4.10;;;;;;;;;;4529958;28;20032;-58
2022/01/16 05:28:56;;;;;;;5.30;4.00;;;;;;;;;;4529399;28;20025;-58
2022/01/16 05:31:06;;;;;;;6.13;4.27;;;;;;;;;;4527783;28;20038;-58
2022/01/16 05:33:17;;;;;;;5.57;4.10;;;;;;;;;;4520786;28;20922;-59
2022/01/16 05:35:27;;;;;;;5.00;3.90;;;;;;;;;;4526966;28;20042;-59
2022/01/16 05:37:38;;;;;;;7.37;4.53;;;;;;;;;;4529337;28;20083;-58
2022/01/16 05:39:49;;;;;;;6.07;4.30;;;;;;;;;;4528823;28;20474;-58
2022/01/16 05:42:00;;;;;;;4.82;3.78;;;;;;;;;;4528204;28;20052;-59
2022/01/16 05:44:10;;;;;;;5.53;3.90;;;;;;;;;;4529015;28;20440;-58
2022/01/16 05:46:20;;;;;;;5.63;4.17;;;;;;;;;;4528640;28;20041;-59
2022/01/16 05:48:31;;;;;;;4.80;3.90;;;;;;;;;;4525551;28;20105;-59
2022/01/16 05:50:41;;;;;;;5.80;4.20;;;;;;;;;;4527043;28;20057;-58
2022/01/16 05:52:52;;;;;;;4.70;3.67;;;;;;;;;;4527482;28;20488;-58
2022/01/16 05:55:02;;;;;;;4.90;3.83;;;;;;;;;;4529470;28;20033;-58
2022/01/16 05:57:13;;;;;;;4.83;4.00;;;;;;;;;;4526830;28;20037;-59
2022/01/16 05:59:23;;;;;;;5.03;3.70;;;;;;;;;;4529471;28;20037;-59
2022/01/16 06:01:36;;;;;;;5.40;3.90;;;;;;;;;;4528184;28;31302;-58
2022/01/16 06:03:46;;;;;;;5.47;4.13;;;;;;;;;;4528364;28;20029;-58
2022/01/16 06:05:57;;;;;;;4.87;3.70;;;;;;;;;;4529994;28;20037;-59
2022/01/16 06:08:11;;;;;;;4.90;3.70;;;;;;;;;;4528127;28;20034;-58
2022/01/16 06:10:21;;;;;;;5.20;4.18;;;;;;;;;;4528515;28;20156;-59
2022/01/16 06:12:32;;;;;;;4.50;3.70;;;;;;;;;;4528676;28;20029;-58
2022/01/16 06:14:42;;;;;;;5.03;3.83;;;;;;;;;;4527053;28;20040;-58
2022/01/16 06:16:53;;;;;;;5.00;3.70;;;;;;;;;;4527440;28;20486;-58
2022/01/16 06:19:03;;;;;;;4.57;3.80;;;;;;;;;;4526861;28;20064;-58
2022/01/16 06:21:14;;;;;;;5.13;3.90;;;;;;;;;;4528176;28;20033;-58
2022/01/16 06:23:24;;;;;;;5.53;4.03;;;;;;;;;;4527328;28;24723;-59
2022/01/16 06:25:35;;;;;;;5.00;3.97;;;;;;;;;;4528362;28;23143;-58
2022/01/16 06:27:45;;;;;;;4.90;3.70;;;;;;;;;;4525481;28;37549;-59
2022/01/16 06:29:55;;;;;;;6.27;3.97;;;;;;;;;;4527107;28;20033;-58
2022/01/16 06:32:06;;;;;;;5.37;3.80;;;;;;;;;;4527485;28;26756;-58
2022/01/16 06:34:17;;;;;;;5.37;4.07;;;;;;;;;;4526365;28;20116;-58
2022/01/16 06:36:28;;;;;;;4.33;3.50;;;;;;;;;;4527437;28;20041;-58
2022/01/16 06:38:38;;;;;;;5.10;3.88;;;;;;;;;;4530814;28;20504;-58
2022/01/16 06:40:49;;;;;;;5.37;3.93;;;;;;;;;;4528907;28;20387;-59
2022/01/16 06:42:59;;;;;;;4.57;3.50;;;;;;;;;;4526160;28;20025;-59
2022/01/16 06:45:10;;;;;;;4.93;3.80;;;;;;;;;;4525277;28;20038;-58
2022/01/16 06:47:21;;;;;;;6.00;4.45;;;;;;;;;;4527567;28;20134;-58
2022/01/16 06:49:31;;;;;;;4.97;3.77;;;;;;;;;;4529134;28;20076;-58
2022/01/16 06:51:42;;;;;;;4.27;3.33;;;;;;;;;;4528396;28;23922;-58
2022/01/16 06:53:57;;;;;;;5.23;4.03;;;;;;;;;;4528693;28;20032;-58
2022/01/16 06:56:07;;;;;;;4.28;3.38;;;;;;;;;;4525343;28;20037;-58
2022/01/16 06:58:18;;;;;;;5.30;3.80;;;;;;;;;;4531628;28;20043;-58
2022/01/16 07:00:28;;;;;;;5.17;3.83;;;;;;;;;;4527337;28;20044;-59
2022/01/16 07:02:39;;;;;;;4.73;3.70;;;;;;;;;;4529153;28;20037;-58
2022/01/16 07:04:49;;;;;;;4.60;3.53;;;;;;;;;;4527111;28;29894;-58
2022/01/16 07:07:00;;;;;;;5.07;3.53;;;;;;;;;;4527261;28;20634;-58
2022/01/16 07:09:11;;;;;;;5.38;4.07;;;;;;;;;;4528072;28;20045;-58
2022/01/16 07:11:21;;;;;;;5.10;3.70;;;;;;;;;;4525700;28;20044;-58
2022/01/16 07:13:32;;;;;;;5.80;4.20;;;;;;;;;;4526682;28;20117;-58
2022/01/16 07:15:42;;;;;;;5.10;3.70;;;;;;;;;;4512027;28;20049;-58
2022/01/16 07:17:53;;;;;;;5.20;3.70;;;;;;;;;;4527937;28;20405;-58
2022/01/16 07:20:04;;;;;;;5.23;3.70;;;;;;;;;;4529334;28;20044;-58
2022/01/16 07:22:14;;;;;;;6.10;4.27;;;;;;;;;;4535541;28;20520;-58
2022/01/16 07:24:25;;;;;;;5.10;3.67;;;;;;;;;;4526156;28;20249;-58
2022/01/16 07:26:35;;;;;;;6.00;4.23;;;;;;;;;;4526566;28;20121;-59
2022/01/16 07:28:46;;;;;;;6.70;5.00;;;;;;;;;;4526338;28;20037;-58
2022/01/16 07:30:56;;;;;;;5.35;3.97;;;;;;;;;;4526489;28;20036;-58
2022/01/16 07:33:08;;;;;;;5.23;4.27;;;;;;;;;;4527161;28;20040;-58
2022/01/16 07:35:18;;;;;;;6.13;4.55;;;;;;;;;;4528605;28;20044;-59
2022/01/16 07:37:29;;;;;;;6.50;4.63;;;;;;;;;;4526407;28;20036;-59
2022/01/16 07:39:39;;;;;;;6.17;4.70;;;;;;;;;;4512170;28;20069;-58
2022/01/16 07:41:49;;;;;;;6.77;4.70;;;;;;;;;;4526252;28;20053;-58
2022/01/16 07:44:05;;;;;;;6.70;4.80;;;;;;;;;;4526403;28;20124;-58
2022/01/16 07:46:18;;;;;;;8.20;6.10;;;;;;;;;;4527378;28;20520;-58
2022/01/16 07:48:28;;;;;;;7.05;5.13;;;;;;;;;;4526212;28;26484;-58
2022/01/16 07:50:39;;;;;;;7.47;5.37;;;;;;;;;;4525405;28;20041;-58
2022/01/16 07:52:49;;;;;;;7.23;5.23;;;;;;;;;;4526632;28;20088;-60
2022/01/16 07:55:00;;;;;;;7.43;5.23;;;;;;;;;;4531310;28;20256;-58
2022/01/16 07:57:10;;;;;;;8.30;6.03;;;;;;;;;;4529049;28;20037;-59
2022/01/16 07:59:21;;;;;;;9.53;6.40;;;;;;;;;;4529857;28;20044;-58
2022/01/16 08:01:31;;;;;;;9.13;6.70;;;;;;;;;;4528396;28;20045;-58
2022/01/16 08:03:42;;;;;;;9.80;7.27;;;;;;;;;;4527790;28;20064;-59
2022/01/16 08:05:52;;;;;;;10.80;7.97;;;;;;;;;;4528412;28;26627;-58
2022/01/16 08:08:03;;;;;;;11.37;8.63;;;;;;;;;;4528590;28;20055;-58
2022/01/16 08:10:14;;;;;;;7.05;5.20;;;;;;;;;;4529118;28;20041;-58
2022/01/16 08:12:24;;;;;;;7.37;5.00;;;;;;;;;;4529777;28;21033;-58
2022/01/16 08:14:35;;;;;;;8.20;5.70;;;;;;;;;;4528764;28;20036;-58
2022/01/16 08:16:46;;;;;;;6.63;4.90;;;;;;;;;;4520726;28;20486;-59
2022/01/16 08:18:56;;;;;;;5.83;4.50;;;;;;;;;;4529120;28;20025;-58
2022/01/16 08:21:07;;;;;;;5.80;4.13;;;;;;;;;;4529464;28;20051;-58
2022/01/16 08:23:17;;;;;;;4.97;3.43;;;;;;;;;;4527878;28;20537;-59
2022/01/16 08:25:28;;;;;;;6.83;4.63;;;;;;;;;;4530433;28;20884;-58
2022/01/16 08:27:38;;;;;;;5.97;4.27;;;;;;;;;;4527799;28;20041;-59
2022/01/16 08:29:49;;;;;;;6.57;5.40;;;;;;;;;;4527167;28;20038;-58
2022/01/16 08:31:59;;;;;;;7.97;6.27;;;;;;;;;;4529075;28;20120;-59
2022/01/16 08:34:10;;;;;;;11.67;8.53;;;;;;;;;;4527588;28;25372;-59
2022/01/16 08:36:21;;;;;;;11.03;8.37;;;;;;;;;;4528042;28;20081;-59
2022/01/16 08:38:33;;;;;;;9.77;6.57;;;;;;;;;;4528185;28;20044;-59
2022/01/16 08:40:44;;;;;;;7.20;5.47;;;;;;;;;;4528786;28;20130;-58
2022/01/16 08:42:54;;;;;;;6.50;5.13;;;;;;;;;;4529456;28;20103;-58
2022/01/16 08:45:05;;;;;;;7.43;5.20;;;;;;;;;;4529559;28;20396;-58
2022/01/16 08:47:15;;;;;;;7.10;4.90;;;;;;;;;;4529538;28;20029;-59
2022/01/16 08:49:26;;;;;;;7.20;4.90;;;;;;;;;;4521135;28;20501;-58
2022/01/16 08:51:36;;;;;;;13.60;9.93;;;;;;;;;;4526150;28;23070;-59
2022/01/16 08:53:47;;;;;;;6.93;5.17;;;;;;;;;;4527768;28;20444;-58
2022/01/16 08:55:59;;;;;;;7.13;4.63;;;;;;;;;;4528057;28;20034;-59
2022/01/16 08:58:09;;;;;;;6.47;4.95;;;;;;;;;;4530022;28;20034;-58
2022/01/16 09:00:19;;;;;;;7.47;5.40;;;;;;;;;;4526772;28;20037;-58
2022/01/16 09:02:30;;;;;;;7.03;5.27;;;;;;;;;;4528732;28;20283;-58
2022/01/16 09:04:40;;;;;;;7.17;5.37;;;;;;;;;;4524465;28;20041;-58
2022/01/16 09:06:51;;;;;;;7.70;4.83;;;;;;;;;;4536411;28;33995;-58
2022/01/16 09:09:01;;;;;;;6.00;4.90;;;;;;;;;;4527505;28;20350;-58
2022/01/16 09:11:11;;;;;;;8.23;5.37;;;;;;;;;;4513528;28;20540;-59
2022/01/16 09:13:22;;;;;;;6.73;4.93;;;;;;;;;;4527155;28;20033;-58
2022/01/16 09:15:32;;;;;;;7.50;5.17;;;;;;;;;;4525945;28;20057;-58
2022/01/16 09:17:43;;;;;;;7.60;5.00;;;;;;;;;;4527072;28;20037;-58
2022/01/16 09:19:54;;;;;;;7.47;5.33;;;;;;;;;;4525088;28;20029;-58
2022/01/16 09:22:04;;;;;;;7.15;5.05;;;;;;;;;;4530243;28;20040;-58
2022/01/16 09:24:15;;;;;;;6.70;4.83;;;;;;;;;;4529361;28;20033;-58
2022/01/16 09:26:26;;;;;;;6.60;5.20;;;;;;;;;;4527123;28;20029;-58
2022/01/16 09:28:36;;;;;;;7.03;5.30;;;;;;;;;;4526486;28;20521;-59
2022/01/16 09:30:46;;;;;;;6.87;5.17;;;;;;;;;;4528536;28;20033;-58
2022/01/16 09:32:57;;;;;;;7.50;5.13;;;;;;;;;;4528364;28;20047;-63
2022/01/16 09:35:09;;;;;;;7.17;5.00;;;;;;;;;;4525758;28;20367;-59
2022/01/16 09:37:20;;;;;;;7.20;5.07;;;;;;;;;;4530305;28;20028;-58
2022/01/16 09:39:30;;;;;;;6.97;5.03;;;;;;;;;;4527680;28;20033;-58
2022/01/16 09:41:42;;;;;;;9.10;5.40;;;;;;;;;;4527393;28;20049;-58
2022/01/16 09:43:52;;;;;;;;;;;;;;;;;;4526809;28;20049;-57
2022/01/16 09:46:02;;;;;;;8.60;5.25;;;;;;;;;;4528547;28;19924;-59
2022/01/16 09:48:14;;;;;;;6.20;4.60;;;;;;;;;;4529180;28;20583;-59
2022/01/16 09:50:26;;;;;;;6.30;4.55;;;;;;;;;;4526376;28;20041;-58
2022/01/16 09:52:37;;;;;;;4.85;4.15;;;;;;;;;;4528447;28;20111;-58
2022/01/16 09:54:49;;;;;;;7.63;5.45;;;;;;;;;;4526258;28;20067;-60
2022/01/16 09:57:00;;;;;;;8.32;6.38;;;;;;;;;;4526606;28;20037;-60
2022/01/16 09:59:10;;;;;;;7.53;5.63;;;;;;;;;;4528575;28;20033;-60
2022/01/16 10:01:21;;;;;;;9.67;6.47;;;;;;;;;;4519811;28;20064;-63
2022/01/16 10:03:39;;;;;;;8.63;5.70;;;;;;;;;;4528379;28;20128;-61
2022/01/16 10:05:51;;;;;;;5.47;4.18;;;;;;;;;;4527325;28;20033;-61
2022/01/16 10:08:25;;;;;;;7.28;5.30;;;;;;;;;;4530182;28;20044;-61
2022/01/16 10:10:39;;;;;;;7.82;5.50;;;;;;;;;;4525071;28;20044;-61
2022/01/16 10:12:52;;;;;;;7.95;5.82;;;;;;;;;;4529402;28;20126;-61
2022/01/16 10:15:22;;;;;;;8.23;5.95;;;;;;;;;;4526049;28;20038;-62
2022/01/16 10:17:48;;;;;;;13.10;6.03;;;;;;;;;;4528081;28;20512;-62
2022/01/16 10:20:06;;;;;;;8.68;6.10;;;;;;;;;;4525461;28;20041;-61
2022/01/16 10:22:16;;;;;;;8.70;5.90;;;;;;;;;;4527946;28;20061;-63
2022/01/16 10:24:29;;;;;;;8.47;6.40;;;;;;;;;;4526236;28;20845;-62
2022/01/16 10:26:40;;;;;;;8.32;6.15;;;;;;;;;;4529152;28;20033;-62
2022/01/16 10:28:51;;;;;;;9.15;6.43;;;;;;;;;;4525572;28;20041;-61
2022/01/16 10:31:02;;;;;;;9.25;6.22;;;;;;;;;;4527457;28;20037;-61
2022/01/16 10:33:15;;;;;;;8.30;5.87;;;;;;;;;;4525583;28;23255;-61
2022/01/16 10:35:26;;;;;;;9.55;6.32;;;;;;;;;;4529682;28;20037;-62
2022/01/16 10:37:39;;;;;;;9.18;6.45;;;;;;;;;;4527569;28;20037;-61
2022/01/16 10:40:02;;;;;;;11.82;7.13;;;;;;;;;;4526987;28;20215;-62
2022/01/16 10:42:15;;;;;;;8.98;6.63;;;;;;;;;;4529322;28;20149;-60
2022/01/16 10:44:30;;;;;;;10.82;9.02;;;;;;;;;;4526282;28;20037;-60
2022/01/16 10:46:41;;;;;;;21.45;19.15;;;;;;;;;;4542064;28;20131;-60
2022/01/16 10:49:12;;;;;;;23.97;21.37;;;;;;;;;;4526585;28;20037;-60
2022/01/16 10:51:22;;;;;;;24.98;22.38;;;;;;;;;;4528056;28;20642;-60
2022/01/16 10:53:32;;;;;;;26.73;23.93;;;;;;;;;;4525689;28;20617;-61
2022/01/16 10:55:47;;;;;;;23.40;20.47;;;;;;;;;;4527285;28;20083;-61
2022/01/16 10:58:01;;;;;;;28.92;25.85;;;;;;;;;;4526591;28;20568;-60
2022/01/16 11:00:17;;;;;;;30.33;27.13;;;;;;;;;;4526510;28;20029;-60
2022/01/16 11:02:29;;;;;;;30.45;27.10;;;;;;;;;;4525709;28;20131;-60
2022/01/16 11:04:40;;;;;;;32.20;28.80;;;;;;;;;;4528416;28;20037;-61
2022/01/16 11:07:00;;;;;;;32.92;29.42;;;;;;;;;;4527253;28;20939;-60
2022/01/16 11:09:26;;;;;;;34.95;31.15;;;;;;;;;;4527127;28;20037;-60
2022/01/16 11:11:37;;;;;;;37.25;33.30;;;;;;;;;;4528253;28;20116;-63
2022/01/16 11:13:47;;;;;;;36.77;32.87;;;;;;;;;;4526752;28;20039;-62
2022/01/16 11:15:59;;;;;;;37.23;32.83;;;;;;;;;;4525772;28;33486;-62
2022/01/16 11:18:11;;;;;;;37.78;33.65;;;;;;;;;;4525497;28;20029;-61
2022/01/16 11:20:28;;;;;;;37.05;32.90;;;;;;;;;;4527044;28;20038;-61
2022/01/16 11:23:14;;;;;;;37.80;33.80;;;;;;;;;;4528472;28;20772;-62
2022/01/16 11:25:26;;;;;;;36.83;32.92;;;;;;;;;;4523374;28;20053;-61
2022/01/16 11:27:37;;;;;;;24.83;22.17;;;;;;;;;;4525232;28;20037;-63
2022/01/16 11:29:48;;;;;;;15.55;8.80;;;;;;;;;;4529417;28;20060;-61
2022/01/16 11:31:59;;;;;;;15.60;10.43;;;;;;;;;;4529360;28;20976;-61
2022/01/16 11:34:10;;;;;;;15.23;11.38;;;;;;;;;;4530340;28;20811;-60
2022/01/16 11:36:27;;;;;;;21.00;10.60;;;;;;;;;;4532356;28;20037;-61
2022/01/16 11:38:41;;;;;;;19.40;9.80;;;;;;;;;;4528077;28;20034;-61
2022/01/16 11:40:51;;;;;;;24.90;10.50;;;;;;;;;;4528480;28;20041;-61
2022/01/16 11:43:23;;;;;;;18.83;10.57;;;;;;;;;;4529698;28;20037;-61
2022/01/16 11:45:53;;;;;;;24.63;11.50;;;;;;;;;;4529225;28;21303;-60
2022/01/16 11:48:04;;;;;;;19.50;11.02;;;;;;;;;;4530881;28;20048;-60
2022/01/16 11:50:14;;;;;;;11.60;8.77;;;;;;;;;;4529672;28;20035;-61
2022/01/16 11:52:37;;;;;;;23.93;11.07;;;;;;;;;;4530612;28;20276;-61
2022/01/16 11:54:49;;;;;;;25.08;11.73;;;;;;;;;;4520369;28;20052;-60
2022/01/16 11:57:24;;;;;;;24.52;12.77;;;;;;;;;;4530337;28;20026;-60
2022/01/16 11:59:34;;;;;;;22.63;12.32;;;;;;;;;;4531982;28;20076;-61
2022/01/16 12:01:51;;;;;;;18.70;11.43;;;;;;;;;;4515059;28;20759;-63
2022/01/16 12:04:01;;;;;;;28.75;12.82;;;;;;;;;;4525667;28;20603;-60
2022/01/16 12:06:32;;;;;;;27.33;12.70;;;;;;;;;;4542555;28;29757;-61
2022/01/16 12:08:45;;;;;;;23.30;12.32;;;;;;;;;;4528375;28;20096;-60
2022/01/16 12:10:57;;;;;;;23.30;11.90;;;;;;;;;;4527285;28;20039;-61
2022/01/16 12:13:43;;;;;;;13.65;9.25;;;;;;;;;;4530298;28;20048;-61
2022/01/16 12:16:33;;;;;;;22.45;12.65;;;;;;;;;;4544565;28;20041;-61
2022/01/16 12:18:43;;;;;;;23.45;12.77;;;;;;;;;;4531294;28;20136;-60
2022/01/16 12:20:53;;;;;;;9.97;5.87;;;;;;;;;;4527966;28;20063;-60
2022/01/16 12:23:05;;;;;;;23.07;12.70;;;;;;;;;;4528997;28;22378;-61
2022/01/16 12:25:16;;;;;;;24.83;13.85;;;;;;;;;;4521343;28;20519;-60
2022/01/16 12:27:27;;;;;;;19.43;13.13;;;;;;;;;;4527948;28;20029;-60
2022/01/16 12:30:11;;;;;;;12.27;9.23;;;;;;;;;;4530522;28;20067;-60
2022/01/16 12:33:08;;;;;;;12.30;9.95;;;;;;;;;;4527140;28;20093;-60
2022/01/16 12:35:54;;;;;;;12.70;9.57;;;;;;;;;;4477804;28;20059;-60
2022/01/16 12:38:26;;;;;;;11.80;9.32;;;;;;;;;;4493894;28;20793;-61
2022/01/16 12:40:38;;;;;;;12.38;8.88;;;;;;;;;;4508663;28;20741;-63
2022/01/16 12:42:49;;;;;;;11.27;8.73;;;;;;;;;;4525492;28;20127;-60
2022/01/16 12:44:59;;;;;;;11.57;9.03;;;;;;;;;;4529302;28;20045;-61
2022/01/16 12:47:10;;;;;;;12.07;8.83;;;;;;;;;;4529339;28;20034;-60
2022/01/16 12:49:29;;;;;;;10.73;8.57;;;;;;;;;;4527666;28;22403;-60
2022/01/16 12:51:42;;;;;;;11.60;8.85;;;;;;;;;;4530693;28;20037;-61
2022/01/16 12:54:01;;;;;;;12.63;9.15;;;;;;;;;;4527942;28;20103;-62
2022/01/16 12:56:34;;;;;;;11.40;9.13;;;;;;;;;;4520145;28;20172;-61
2022/01/16 12:58:46;;;;;;;12.38;9.27;;;;;;;;;;4528515;28;20041;-62
2022/01/16 13:00:57;;;;;;;11.18;8.40;;;;;;;;;;4509538;28;20183;-61
2022/01/16 13:03:08;;;;;;;11.77;8.70;;;;;;;;;;4527824;28;20090;-61
2022/01/16 13:05:21;;;;;;;11.77;9.00;;;;;;;;;;4528154;28;20111;-61
2022/01/16 13:07:33;;;;;;;12.18;8.90;;;;;;;;;;4528811;28;20616;-62
2022/01/16 13:09:44;;;;;;;11.68;8.75;;;;;;;;;;4529347;28;20076;-64
2022/01/16 13:11:58;;;;;;;12.40;9.03;;;;;;;;;;4525047;28;20060;-62
2022/01/16 13:14:12;;;;;;;10.80;8.00;;;;;;;;;;4527675;28;20040;-60
2022/01/16 13:16:28;;;;;;;11.15;8.13;;;;;;;;;;4536006;28;20559;-61
2022/01/16 13:19:07;;;;;;;10.95;8.20;;;;;;;;;;4525671;28;20135;-61
2022/01/16 13:21:18;;;;;;;11.80;8.63;;;;;;;;;;4536056;28;20145;-61
2022/01/16 13:23:29;;;;;;;10.93;8.00;;;;;;;;;;4525345;28;20048;-61
2022/01/16 13:25:39;;;;;;;12.83;9.13;;;;;;;;;;4536095;28;20041;-61
2022/01/16 13:27:50;;;;;;;14.13;10.00;;;;;;;;;;4526457;28;20034;-61
2022/01/16 13:30:03;;;;;;;10.27;8.13;;;;;;;;;;4532992;28;20037;-60
2022/01/16 13:32:16;;;;;;;12.02;8.88;;;;;;;;;;4528049;28;20053;-61
2022/01/16 13:34:36;;;;;;;11.40;9.00;;;;;;;;;;4527642;28;20029;-61
2022/01/16 13:36:55;;;;;;;12.93;9.48;;;;;;;;;;4535883;28;20025;-61
2022/01/16 13:39:06;;;;;;;12.77;9.45;;;;;;;;;;4524703;28;20013;-61
2022/01/16 13:41:16;;;;;;;12.73;9.47;;;;;;;;;;4526756;28;20041;-61
2022/01/16 13:43:30;;;;;;;13.50;10.50;;;;;;;;;;4527666;28;20040;-61
2022/01/16 13:45:44;;;;;;;12.50;9.40;;;;;;;;;;4519816;28;20160;-61
2022/01/16 13:48:12;;;;;;;12.50;9.32;;;;;;;;;;4529910;28;20103;-61
2022/01/16 13:50:30;;;;;;;13.05;9.57;;;;;;;;;;4527757;28;20147;-62
2022/01/16 13:52:56;;;;;;;12.20;9.35;;;;;;;;;;4527026;28;20037;-62
2022/01/16 13:55:09;;;;;;;13.30;9.05;;;;;;;;;;4528541;28;20028;-61